Time;durP1;ratioP1;P1;durP2;ratioP2;P2;SDS_P1;SDS_P2;PMS_P1;PMS_P2;Temp;Humidity;BMP_temperature;BMP_pressure;BME280_temperature;BME280_humidity;BME280_pressure;Samples;Min_cycle;Max_cycle;Signal;HPM_P1;HPM_P2
2022/12/09 00:02:20;;;;;;;4.95;2.00;;;;;;;;;;5129987;27;20161;-75
2022/12/09 00:04:50;;;;;;;6.68;2.08;;;;;;;;;;5129173;27;20058;-74
2022/12/09 00:07:21;;;;;;;5.20;2.60;;;;;;;;;;5130281;27;20065;-75
2022/12/09 00:09:52;;;;;;;7.78;2.50;;;;;;;;;;5130314;27;20043;-74
2022/12/09 00:12:24;;;;;;;7.75;2.85;;;;;;;;;;5130860;27;20043;-73
2022/12/09 00:14:54;;;;;;;3.80;2.60;;;;;;;;;;5130220;27;20512;-74
2022/12/09 00:17:24;;;;;;;6.57;2.28;;;;;;;;;;5130579;27;20046;-74
2022/12/09 00:19:54;;;;;;;5.07;2.17;;;;;;;;;;5130021;27;20050;-74
2022/12/09 00:22:26;;;;;;;6.72;2.90;;;;;;;;;;5130558;27;20409;-74
2022/12/09 00:24:57;;;;;;;4.65;2.28;;;;;;;;;;5129960;27;20051;-74
2022/12/09 00:27:27;;;;;;;6.03;2.17;;;;;;;;;;5129802;27;20635;-74
2022/12/09 00:29:58;;;;;;;6.25;2.70;;;;;;;;;;5129472;27;20055;-74
2022/12/09 00:32:28;;;;;;;7.38;2.28;;;;;;;;;;5129003;27;20043;-75
2022/12/09 00:34:59;;;;;;;5.35;2.42;;;;;;;;;;5127953;27;20071;-74
2022/12/09 00:37:29;;;;;;;6.93;2.42;;;;;;;;;;5127988;27;20047;-74
2022/12/09 00:39:59;;;;;;;4.38;2.33;;;;;;;;;;5130855;27;20047;-74
2022/12/09 00:42:29;;;;;;;5.18;1.85;;;;;;;;;;5130237;27;20054;-74
2022/12/09 00:44:59;;;;;;;10.00;2.50;;;;;;;;;;5129469;27;20046;-73
2022/12/09 00:47:29;;;;;;;3.85;2.13;;;;;;;;;;5128218;27;20043;-73
2022/12/09 00:49:59;;;;;;;5.03;2.47;;;;;;;;;;5128340;27;20052;-75
2022/12/09 00:52:30;;;;;;;6.75;2.80;;;;;;;;;;5127693;27;20058;-74
2022/12/09 00:55:01;;;;;;;5.60;2.65;;;;;;;;;;5127117;27;20660;-75
2022/12/09 00:57:32;;;;;;;7.50;2.80;;;;;;;;;;5126494;27;20053;-73
2022/12/09 01:00:02;;;;;;;6.85;2.65;;;;;;;;;;5127102;27;20425;-74
2022/12/09 01:02:35;;;;;;;4.15;2.50;;;;;;;;;;5107416;28;20047;-74
2022/12/09 01:05:06;;;;;;;6.10;2.55;;;;;;;;;;5108021;28;20050;-74
2022/12/09 01:07:37;;;;;;;7.88;2.75;;;;;;;;;;5107967;28;20056;-74
2022/12/09 01:10:08;;;;;;;5.47;2.38;;;;;;;;;;5106992;28;20044;-74
2022/12/09 01:12:39;;;;;;;5.32;3.03;;;;;;;;;;5106528;28;20058;-74
2022/12/09 01:15:10;;;;;;;5.57;2.40;;;;;;;;;;5108506;28;20043;-75
2022/12/09 01:17:40;;;;;;;3.67;2.75;;;;;;;;;;5108278;28;20039;-74
2022/12/09 01:20:10;;;;;;;5.10;2.50;;;;;;;;;;5108630;28;20094;-75
2022/12/09 01:22:40;;;;;;;6.07;2.42;;;;;;;;;;5108725;28;20054;-74
2022/12/09 01:25:10;;;;;;;5.57;3.17;;;;;;;;;;5108937;28;20054;-74
2022/12/09 01:27:40;;;;;;;4.57;2.33;;;;;;;;;;5106606;28;20082;-74
2022/12/09 01:30:12;;;;;;;7.53;2.58;;;;;;;;;;5107389;28;20166;-74
2022/12/09 01:32:43;;;;;;;5.30;2.47;;;;;;;;;;5108781;28;20066;-75
2022/12/09 01:35:13;;;;;;;7.32;2.75;;;;;;;;;;5108780;28;20628;-75
2022/12/09 01:37:43;;;;;;;6.20;2.75;;;;;;;;;;5108320;28;20048;-75
2022/12/09 01:40:17;;;;;;;4.65;2.67;;;;;;;;;;5108635;28;20047;-75
2022/12/09 01:42:50;;;;;;;5.18;2.33;;;;;;;;;;5107527;28;20039;-75
2022/12/09 01:45:29;;;;;;;5.72;2.88;;;;;;;;;;5105713;28;20055;-74
2022/12/09 01:48:20;;;;;;;6.13;2.40;;;;;;;;;;5107863;28;20051;-75
2022/12/09 01:50:59;;;;;;;6.68;2.75;;;;;;;;;;5107223;28;20070;-74
2022/12/09 01:53:36;;;;;;;4.45;2.08;;;;;;;;;;5107886;28;20039;-73
2022/12/09 01:56:11;;;;;;;4.00;2.25;;;;;;;;;;5107694;28;20083;-74
2022/12/09 01:58:42;;;;;;;3.65;1.92;;;;;;;;;;5106801;28;20051;-74
2022/12/09 02:01:11;;;;;;;5.32;2.33;;;;;;;;;;5105822;28;20059;-74
2022/12/09 02:03:41;;;;;;;7.30;2.58;;;;;;;;;;5108425;28;20050;-74
2022/12/09 02:06:12;;;;;;;5.78;2.40;;;;;;;;;;5105767;28;20051;-74
2022/12/09 02:08:45;;;;;;;7.53;2.83;;;;;;;;;;5106030;28;20506;-74
2022/12/09 02:11:41;;;;;;;8.73;3.10;;;;;;;;;;5105885;28;20414;-73
2022/12/09 02:14:14;;;;;;;6.93;2.83;;;;;;;;;;5105430;28;20055;-74
2022/12/09 02:17:19;;;;;;;5.78;2.40;;;;;;;;;;5105913;28;20051;-74
2022/12/09 02:20:22;;;;;;;5.65;2.97;;;;;;;;;;5106626;28;20426;-74
2022/12/09 02:23:04;;;;;;;10.90;2.65;;;;;;;;;;5105576;28;20102;-74
2022/12/09 02:25:47;;;;;;;5.38;2.50;;;;;;;;;;5107696;28;20050;-74
2022/12/09 02:28:49;;;;;;;;;;;;;;;;;;5105586;28;20601;-74
2022/12/09 02:31:26;;;;;;;4.22;2.20;;;;;;;;;;5063610;28;19924;-73
2022/12/09 02:34:06;;;;;;;4.03;2.97;;;;;;;;;;5105352;28;20059;-74
2022/12/09 02:36:53;;;;;;;4.68;2.72;;;;;;;;;;5105195;28;20052;-78
2022/12/09 02:39:34;;;;;;;11.50;3.63;;;;;;;;;;5105179;28;20441;-74
2022/12/09 02:42:08;;;;;;;7.88;3.83;;;;;;;;;;5105628;28;20055;-74
2022/12/09 02:44:40;;;;;;;6.60;3.08;;;;;;;;;;5106974;28;20062;-74
2022/12/09 02:47:15;;;;;;;7.18;2.88;;;;;;;;;;5105378;28;20043;-73
2022/12/09 02:49:59;;;;;;;4.00;2.83;;;;;;;;;;5104974;28;20409;-74
2022/12/09 02:52:32;;;;;;;5.75;3.00;;;;;;;;;;5105449;28;20051;-74
2022/12/09 02:55:06;;;;;;;7.38;2.92;;;;;;;;;;5105315;28;20402;-74
2022/12/09 02:57:39;;;;;;;7.57;2.83;;;;;;;;;;5089454;28;20044;-74
2022/12/09 03:00:14;;;;;;;5.05;2.63;;;;;;;;;;5105246;28;20051;-74
2022/12/09 03:02:48;;;;;;;3.40;2.42;;;;;;;;;;5106940;28;20043;-73
2022/12/09 03:05:28;;;;;;;5.22;2.22;;;;;;;;;;5106892;28;20052;-74
2022/12/09 03:08:37;;;;;;;3.83;1.98;;;;;;;;;;5105988;28;20050;-75
2022/12/09 03:11:10;;;;;;;5.43;2.10;;;;;;;;;;5106956;28;20055;-73
2022/12/09 03:13:58;;;;;;;2.38;1.67;;;;;;;;;;5106045;28;20051;-74
2022/12/09 03:16:48;;;;;;;4.70;2.83;;;;;;;;;;5106333;28;20063;-73
2022/12/09 03:19:47;;;;;;;6.15;2.67;;;;;;;;;;5106528;28;20043;-74
2022/12/09 03:22:21;;;;;;;3.67;2.25;;;;;;;;;;5076399;28;20056;-73
2022/12/09 03:24:53;;;;;;;7.20;2.10;;;;;;;;;;5106648;28;20887;-74
2022/12/09 03:27:41;;;;;;;6.60;2.70;;;;;;;;;;5106132;28;20066;-73
2022/12/09 03:30:12;;;;;;;4.70;2.30;;;;;;;;;;5104736;28;20056;-73
2022/12/09 03:32:46;;;;;;;5.85;2.97;;;;;;;;;;5105336;28;20058;-75
2022/12/09 03:35:23;;;;;;;4.13;2.17;;;;;;;;;;5106642;28;20039;-73
2022/12/09 03:37:54;;;;;;;7.70;2.38;;;;;;;;;;5106270;28;20047;-75
2022/12/09 03:40:28;;;;;;;5.65;1.95;;;;;;;;;;5106561;28;20048;-74
2022/12/09 03:43:29;;;;;;;4.40;2.22;;;;;;;;;;5105968;28;20050;-74
2022/12/09 03:45:59;;;;;;;6.05;2.13;;;;;;;;;;5098703;28;20062;-73
2022/12/09 03:48:30;;;;;;;3.40;2.75;;;;;;;;;;5106880;28;20051;-74
2022/12/09 03:51:13;;;;;;;12.27;3.22;;;;;;;;;;5106828;28;20064;-73
2022/12/09 03:53:48;;;;;;;;;;;;;;;;;;5106873;28;20518;-73
2022/12/09 03:56:33;;;;;;;10.07;2.95;;;;;;;;;;5107239;28;19920;-75
2022/12/09 03:59:08;;;;;;;5.82;2.65;;;;;;;;;;5106317;28;20047;-76
2022/12/09 04:01:40;;;;;;;7.50;2.55;;;;;;;;;;5106837;28;20426;-73
2022/12/09 04:04:15;;;;;;;5.57;2.55;;;;;;;;;;5106520;28;20043;-73
2022/12/09 04:06:47;;;;;;;15.60;4.07;;;;;;;;;;5107930;28;20430;-74
2022/12/09 04:09:17;;;;;;;5.70;2.92;;;;;;;;;;5109593;28;20067;-74
2022/12/09 04:11:47;;;;;;;6.93;2.75;;;;;;;;;;5110143;28;20424;-73
2022/12/09 04:14:18;;;;;;;10.30;2.70;;;;;;;;;;5109167;28;20044;-76
2022/12/09 04:16:49;;;;;;;4.68;3.00;;;;;;;;;;5110169;28;20048;-73
2022/12/09 04:19:19;;;;;;;3.53;2.55;;;;;;;;;;5110598;28;20050;-74
2022/12/09 04:21:48;;;;;;;7.82;3.15;;;;;;;;;;5109891;28;20036;-74
2022/12/09 04:24:18;;;;;;;5.43;2.50;;;;;;;;;;5109839;28;20040;-74
2022/12/09 04:26:48;;;;;;;4.53;2.08;;;;;;;;;;5109464;28;20048;-73
2022/12/09 04:29:18;;;;;;;3.20;2.10;;;;;;;;;;5109717;28;20043;-73
2022/12/09 04:31:48;;;;;;;4.60;2.65;;;;;;;;;;5109748;28;20044;-74
2022/12/09 04:34:18;;;;;;;7.25;2.47;;;;;;;;;;5109423;28;20047;-73
2022/12/09 04:36:48;;;;;;;4.20;2.35;;;;;;;;;;5109285;28;20044;-74
2022/12/09 04:39:18;;;;;;;3.85;2.80;;;;;;;;;;5109741;28;20482;-74
2022/12/09 04:41:48;;;;;;;7.22;2.45;;;;;;;;;;5109561;28;20047;-73
2022/12/09 04:44:18;;;;;;;5.32;2.60;;;;;;;;;;5109508;28;20494;-73
2022/12/09 04:46:49;;;;;;;7.18;2.38;;;;;;;;;;5107111;28;20064;-73
2022/12/09 04:49:19;;;;;;;5.25;3.00;;;;;;;;;;5108874;28;20050;-74
2022/12/09 04:51:49;;;;;;;5.40;3.00;;;;;;;;;;5108723;28;20054;-72
2022/12/09 04:54:19;;;;;;;7.57;3.20;;;;;;;;;;5109148;28;20040;-74
2022/12/09 04:56:49;;;;;;;5.88;2.90;;;;;;;;;;5109163;28;20410;-73
2022/12/09 04:59:20;;;;;;;6.28;3.50;;;;;;;;;;5109608;28;20070;-73
2022/12/09 05:01:50;;;;;;;10.02;3.05;;;;;;;;;;5109262;28;20379;-73
2022/12/09 05:04:21;;;;;;;8.70;3.72;;;;;;;;;;5108286;28;20059;-74
2022/12/09 05:06:51;;;;;;;7.80;3.55;;;;;;;;;;5106605;28;20055;-73
2022/12/09 05:09:22;;;;;;;9.52;3.85;;;;;;;;;;5108576;28;20044;-73
2022/12/09 05:11:52;;;;;;;9.43;4.20;;;;;;;;;;5108950;28;20054;-74
2022/12/09 05:14:23;;;;;;;7.43;4.55;;;;;;;;;;5106839;28;20070;-74
2022/12/09 05:16:53;;;;;;;8.90;3.88;;;;;;;;;;5108776;28;20050;-74
2022/12/09 05:19:24;;;;;;;12.35;5.15;;;;;;;;;;5107931;28;20415;-73
2022/12/09 05:21:55;;;;;;;9.25;4.22;;;;;;;;;;5108224;28;20057;-74
2022/12/09 05:24:26;;;;;;;6.60;3.58;;;;;;;;;;5108539;28;20055;-73
2022/12/09 05:26:56;;;;;;;8.05;3.80;;;;;;;;;;5108576;28;20052;-73
2022/12/09 05:29:26;;;;;;;8.82;3.42;;;;;;;;;;5108146;28;20066;-73
2022/12/09 05:31:56;;;;;;;6.30;3.75;;;;;;;;;;5106645;28;20055;-74
2022/12/09 05:34:27;;;;;;;7.80;4.38;;;;;;;;;;5107901;28;20502;-74
2022/12/09 05:36:57;;;;;;;7.10;4.40;;;;;;;;;;5108200;28;20534;-74
2022/12/09 05:39:28;;;;;;;6.13;3.50;;;;;;;;;;5108231;28;20048;-73
2022/12/09 05:41:57;;;;;;;8.82;3.88;;;;;;;;;;5108166;28;20056;-73
2022/12/09 05:44:29;;;;;;;5.95;4.28;;;;;;;;;;5108581;28;20055;-75
2022/12/09 05:46:59;;;;;;;6.57;3.42;;;;;;;;;;5108273;28;20047;-74
2022/12/09 05:49:29;;;;;;;8.00;3.25;;;;;;;;;;5108758;28;20066;-73
2022/12/09 05:51:59;;;;;;;6.32;3.33;;;;;;;;;;5107945;28;20062;-74
2022/12/09 05:54:29;;;;;;;6.13;3.55;;;;;;;;;;5106910;28;20426;-74
2022/12/09 05:57:02;;;;;;;6.13;3.88;;;;;;;;;;5107898;28;20051;-74
2022/12/09 05:59:32;;;;;;;5.60;3.22;;;;;;;;;;5107588;28;20117;-74
2022/12/09 06:02:03;;;;;;;8.60;4.30;;;;;;;;;;5107256;28;20046;-73
2022/12/09 06:04:38;;;;;;;7.30;3.55;;;;;;;;;;5106759;28;20063;-73
2022/12/09 06:07:08;;;;;;;10.05;4.38;;;;;;;;;;5107840;28;20405;-74
2022/12/09 06:09:39;;;;;;;6.43;3.60;;;;;;;;;;5108206;28;20044;-74
2022/12/09 06:12:10;;;;;;;10.05;3.47;;;;;;;;;;5107433;28;20494;-74
2022/12/09 06:14:41;;;;;;;11.70;3.95;;;;;;;;;;5107607;28;20048;-74
2022/12/09 06:17:12;;;;;;;8.38;4.68;;;;;;;;;;5107435;28;20070;-74
2022/12/09 06:19:43;;;;;;;6.25;3.92;;;;;;;;;;5107531;28;20518;-74
2022/12/09 06:22:13;;;;;;;6.25;4.25;;;;;;;;;;5107221;28;20039;-73
2022/12/09 06:24:43;;;;;;;9.45;4.03;;;;;;;;;;5107631;28;20048;-74
2022/12/09 06:27:12;;;;;;;8.02;3.63;;;;;;;;;;5107973;28;20509;-73
2022/12/09 06:29:43;;;;;;;7.50;3.47;;;;;;;;;;5107068;28;20035;-73
2022/12/09 06:32:13;;;;;;;12.30;4.07;;;;;;;;;;5105957;28;20051;-74
2022/12/09 06:34:44;;;;;;;7.60;3.67;;;;;;;;;;5107225;28;20395;-73
2022/12/09 06:37:17;;;;;;;5.60;3.42;;;;;;;;;;5107283;28;20047;-74
2022/12/09 06:39:48;;;;;;;5.38;3.20;;;;;;;;;;5107178;28;20082;-73
2022/12/09 06:42:18;;;;;;;6.57;3.03;;;;;;;;;;5106453;28;20039;-73
2022/12/09 06:44:48;;;;;;;7.40;3.22;;;;;;;;;;5106048;28;20063;-73
2022/12/09 06:47:18;;;;;;;7.35;3.42;;;;;;;;;;5106926;28;20059;-73
2022/12/09 06:49:48;;;;;;;7.25;3.95;;;;;;;;;;5107114;28;20059;-74
2022/12/09 06:52:18;;;;;;;7.10;3.65;;;;;;;;;;5106863;28;20048;-74
2022/12/09 06:54:48;;;;;;;5.25;3.67;;;;;;;;;;5106568;28;20417;-73
2022/12/09 06:57:18;;;;;;;7.30;2.85;;;;;;;;;;5106692;28;20106;-73
2022/12/09 06:59:48;;;;;;;9.75;3.33;;;;;;;;;;5105335;28;20059;-74
2022/12/09 07:02:18;;;;;;;10.40;4.15;;;;;;;;;;5106769;28;20059;-74
2022/12/09 07:04:55;;;;;;;8.80;3.35;;;;;;;;;;5107648;28;20070;-74
2022/12/09 07:07:26;;;;;;;9.45;3.80;;;;;;;;;;5106625;28;20055;-74
2022/12/09 07:09:56;;;;;;;7.60;3.70;;;;;;;;;;5106277;28;20051;-74
2022/12/09 07:12:27;;;;;;;9.15;3.85;;;;;;;;;;5106380;28;20056;-74
2022/12/09 07:14:57;;;;;;;7.20;3.85;;;;;;;;;;5106701;28;20063;-73
2022/12/09 07:17:27;;;;;;;9.63;3.88;;;;;;;;;;5106715;28;20047;-73
2022/12/09 07:19:58;;;;;;;6.55;3.90;;;;;;;;;;5106450;28;20059;-74
2022/12/09 07:22:35;;;;;;;8.93;4.97;;;;;;;;;;5106850;28;20051;-73
2022/12/09 07:25:06;;;;;;;7.15;4.22;;;;;;;;;;5106670;28;20051;-74
2022/12/09 07:27:37;;;;;;;8.95;4.55;;;;;;;;;;5104639;28;20047;-74
2022/12/09 07:30:07;;;;;;;6.10;3.92;;;;;;;;;;5106478;28;20044;-74
2022/12/09 07:32:37;;;;;;;6.03;4.38;;;;;;;;;;5107221;28;20070;-73
2022/12/09 07:35:08;;;;;;;10.80;5.63;;;;;;;;;;5104642;28;20059;-74
2022/12/09 07:37:39;;;;;;;7.85;3.80;;;;;;;;;;5106264;28;20052;-73
2022/12/09 07:40:09;;;;;;;9.15;3.75;;;;;;;;;;5106393;28;20533;-74
2022/12/09 07:42:39;;;;;;;8.27;3.35;;;;;;;;;;5109936;28;20047;-73
2022/12/09 07:45:10;;;;;;;6.40;3.80;;;;;;;;;;5108480;28;20055;-73
2022/12/09 07:47:41;;;;;;;5.38;3.47;;;;;;;;;;5110693;28;20051;-73
2022/12/09 07:50:11;;;;;;;8.38;4.53;;;;;;;;;;5110194;28;20056;-73
2022/12/09 07:52:41;;;;;;;9.82;5.55;;;;;;;;;;5109086;28;20039;-73
2022/12/09 07:55:12;;;;;;;12.23;4.72;;;;;;;;;;5110655;28;20055;-73
2022/12/09 07:57:42;;;;;;;14.00;5.53;;;;;;;;;;5109293;28;20679;-73
2022/12/09 08:00:13;;;;;;;8.05;4.82;;;;;;;;;;5110761;28;20044;-73
2022/12/09 08:02:43;;;;;;;6.63;4.78;;;;;;;;;;5110559;28;20462;-74
2022/12/09 08:05:14;;;;;;;8.48;4.32;;;;;;;;;;5110247;28;20048;-73
2022/12/09 08:07:45;;;;;;;6.90;4.07;;;;;;;;;;5110116;28;20043;-74
2022/12/09 08:10:16;;;;;;;9.48;4.75;;;;;;;;;;5110109;28;20047;-73
2022/12/09 08:12:46;;;;;;;10.65;4.55;;;;;;;;;;5110154;28;20043;-74
2022/12/09 08:15:18;;;;;;;9.43;5.18;;;;;;;;;;5109987;28;20040;-74
2022/12/09 08:17:49;;;;;;;8.38;4.13;;;;;;;;;;5109790;28;20054;-74
2022/12/09 08:20:19;;;;;;;10.05;4.82;;;;;;;;;;5108257;28;20573;-73
2022/12/09 08:22:57;;;;;;;7.78;3.88;;;;;;;;;;5109792;28;20051;-73
2022/12/09 08:25:27;;;;;;;7.55;4.70;;;;;;;;;;5110129;28;20055;-74
2022/12/09 08:27:58;;;;;;;11.45;4.43;;;;;;;;;;5108104;28;20043;-74
2022/12/09 08:30:28;;;;;;;13.20;4.30;;;;;;;;;;5108832;28;20050;-73
2022/12/09 08:33:00;;;;;;;9.48;4.20;;;;;;;;;;5109711;28;20047;-73
2022/12/09 08:35:30;;;;;;;8.20;4.38;;;;;;;;;;5109316;28;20528;-74
2022/12/09 08:38:00;;;;;;;7.13;4.88;;;;;;;;;;5108146;28;20510;-74
2022/12/09 08:40:30;;;;;;;9.93;4.82;;;;;;;;;;5109158;28;20047;-75
2022/12/09 08:43:04;;;;;;;8.45;4.75;;;;;;;;;;5109126;28;20048;-75
2022/12/09 08:45:40;;;;;;;8.02;4.28;;;;;;;;;;5107572;28;20052;-74
2022/12/09 08:48:10;;;;;;;11.45;4.68;;;;;;;;;;5109190;28;20066;-73
2022/12/09 08:50:40;;;;;;;7.88;5.03;;;;;;;;;;5107333;28;20059;-73
2022/12/09 08:53:10;;;;;;;7.82;5.07;;;;;;;;;;5107400;28;20520;-74
2022/12/09 08:55:41;;;;;;;11.93;5.15;;;;;;;;;;5108922;28;20062;-73
2022/12/09 08:58:11;;;;;;;13.90;5.40;;;;;;;;;;5107652;28;20506;-73
2022/12/09 09:00:41;;;;;;;7.30;4.90;;;;;;;;;;5109062;28;20043;-74
2022/12/09 09:03:10;;;;;;;10.57;5.25;;;;;;;;;;5108649;28;20043;-75
2022/12/09 09:05:41;;;;;;;10.55;5.25;;;;;;;;;;5108371;28;20043;-73
2022/12/09 09:08:12;;;;;;;12.30;6.97;;;;;;;;;;5109285;28;20043;-74
2022/12/09 09:10:42;;;;;;;9.85;6.03;;;;;;;;;;5108105;28;20056;-73
2022/12/09 09:13:13;;;;;;;10.05;4.80;;;;;;;;;;5107782;28;20046;-73
2022/12/09 09:15:43;;;;;;;12.25;6.45;;;;;;;;;;5107677;28;20051;-73
2022/12/09 09:18:14;;;;;;;11.88;6.55;;;;;;;;;;5108255;28;20048;-73
2022/12/09 09:20:51;;;;;;;13.00;5.53;;;;;;;;;;5108377;28;20044;-73
2022/12/09 09:23:21;;;;;;;12.13;7.43;;;;;;;;;;5108772;28;20059;-73
2022/12/09 09:25:51;;;;;;;15.10;6.72;;;;;;;;;;5108289;28;20047;-73
2022/12/09 09:28:21;;;;;;;12.27;7.55;;;;;;;;;;5107543;28;20047;-73
2022/12/09 09:31:03;;;;;;;10.57;6.68;;;;;;;;;;5108275;28;20050;-73
2022/12/09 09:33:33;;;;;;;;;;;;;;;;;;5108752;28;20040;-74
2022/12/09 09:36:06;;;;;;;7.00;4.65;;;;;;;;;;5108356;28;19924;-74
2022/12/09 09:38:39;;;;;;;16.23;5.70;;;;;;;;;;5107858;28;20055;-74
2022/12/09 09:41:35;;;;;;;8.85;4.35;;;;;;;;;;5108006;28;20062;-73
2022/12/09 09:44:25;;;;;;;9.23;4.25;;;;;;;;;;5092554;28;20541;-74
2022/12/09 09:46:57;;;;;;;9.50;4.22;;;;;;;;;;5102507;28;20059;-73
2022/12/09 09:49:57;;;;;;;8.23;4.30;;;;;;;;;;5107256;28;20525;-74
2022/12/09 09:52:30;;;;;;;6.75;3.80;;;;;;;;;;5108142;28;20070;-76
2022/12/09 09:55:15;;;;;;;7.78;3.47;;;;;;;;;;5107831;28;20051;-73
2022/12/09 09:57:46;;;;;;;7.80;3.90;;;;;;;;;;5108382;28;20048;-76
2022/12/09 10:00:49;;;;;;;5.40;3.13;;;;;;;;;;5108002;28;20048;-73
2022/12/09 10:03:31;;;;;;;12.40;4.35;;;;;;;;;;5107902;28;20055;-75
2022/12/09 10:06:18;;;;;;;12.30;4.10;;;;;;;;;;5107820;28;20044;-74
2022/12/09 10:08:57;;;;;;;10.40;4.30;;;;;;;;;;5107700;28;20043;-72
2022/12/09 10:12:00;;;;;;;11.93;4.20;;;;;;;;;;5107775;28;20058;-73
2022/12/09 10:14:44;;;;;;;10.57;4.22;;;;;;;;;;5106791;28;20414;-73
2022/12/09 10:17:20;;;;;;;9.40;4.35;;;;;;;;;;5107469;28;20046;-74
2022/12/09 10:20:01;;;;;;;7.47;4.72;;;;;;;;;;5107313;28;20082;-73
2022/12/09 10:22:52;;;;;;;5.72;3.30;;;;;;;;;;5107696;28;20044;-73
2022/12/09 10:25:27;;;;;;;9.27;3.63;;;;;;;;;;5107876;28;20044;-74
2022/12/09 10:28:11;;;;;;;10.45;4.35;;;;;;;;;;5106968;28;20533;-74
2022/12/09 10:30:41;;;;;;;7.65;3.30;;;;;;;;;;5107282;28;20043;-73
2022/12/09 10:33:14;;;;;;;9.70;3.30;;;;;;;;;;5107519;28;20044;-73
2022/12/09 10:35:45;;;;;;;8.80;4.40;;;;;;;;;;5107325;28;20070;-73
2022/12/09 10:38:18;;;;;;;8.70;4.38;;;;;;;;;;5107221;28;20078;-74
2022/12/09 10:41:01;;;;;;;6.68;3.40;;;;;;;;;;5106649;28;20058;-73
2022/12/09 10:43:37;;;;;;;8.80;3.53;;;;;;;;;;5107008;28;20039;-73
2022/12/09 10:46:14;;;;;;;8.45;3.00;;;;;;;;;;5106953;28;20860;-75
2022/12/09 10:48:52;;;;;;;8.50;3.63;;;;;;;;;;5106296;28;20075;-73
2022/12/09 10:51:29;;;;;;;14.95;5.05;;;;;;;;;;5106735;28;20062;-74
2022/12/09 10:54:10;;;;;;;8.30;3.65;;;;;;;;;;5106836;28;20526;-74
2022/12/09 10:57:10;;;;;;;8.23;3.78;;;;;;;;;;5107655;28;20048;-73
2022/12/09 11:00:17;;;;;;;4.15;3.30;;;;;;;;;;5106599;28;20040;-74
2022/12/09 11:02:54;;;;;;;5.40;3.13;;;;;;;;;;5103907;28;20418;-73
2022/12/09 11:05:27;;;;;;;6.18;3.17;;;;;;;;;;5108778;28;20044;-74
2022/12/09 11:07:58;;;;;;;8.27;3.47;;;;;;;;;;5104937;28;20048;-74
2022/12/09 11:10:29;;;;;;;8.88;3.10;;;;;;;;;;5106681;28;20043;-73
2022/12/09 11:13:06;;;;;;;7.03;2.40;;;;;;;;;;5106957;28;20073;-74
2022/12/09 11:15:43;;;;;;;6.68;2.53;;;;;;;;;;5106037;28;20059;-74
2022/12/09 11:18:31;;;;;;;17.02;4.60;;;;;;;;;;5106204;28;20048;-74
2022/12/09 11:21:05;;;;;;;6.00;3.30;;;;;;;;;;5106731;28;20040;-73
2022/12/09 11:23:36;;;;;;;7.03;3.38;;;;;;;;;;5106890;28;20040;-74
2022/12/09 11:26:31;;;;;;;7.18;3.10;;;;;;;;;;5106007;28;20055;-74
2022/12/09 11:29:14;;;;;;;14.73;5.13;;;;;;;;;;5106630;28;20043;-73
2022/12/09 11:31:45;;;;;;;6.88;3.20;;;;;;;;;;5106914;28;20043;-74
2022/12/09 11:34:26;;;;;;;6.97;3.70;;;;;;;;;;5106460;28;20052;-75
2022/12/09 11:37:01;;;;;;;4.78;3.13;;;;;;;;;;5106733;28;20039;-74
2022/12/09 11:39:35;;;;;;;14.85;3.50;;;;;;;;;;5106442;28;20054;-74
2022/12/09 11:42:17;;;;;;;7.57;2.80;;;;;;;;;;5106385;28;20032;-74
2022/12/09 11:44:55;;;;;;;9.20;2.92;;;;;;;;;;5106136;28;20047;-75
2022/12/09 11:47:38;;;;;;;6.25;2.60;;;;;;;;;;5105530;28;20054;-77
2022/12/09 11:50:31;;;;;;;4.70;2.83;;;;;;;;;;5106372;28;20056;-76
2022/12/09 11:53:13;;;;;;;11.02;4.30;;;;;;;;;;5107154;28;20050;-74
2022/12/09 11:55:51;;;;;;;7.75;3.00;;;;;;;;;;5106423;28;20054;-78
2022/12/09 11:58:36;;;;;;;7.20;2.92;;;;;;;;;;5105998;28;20579;-74
2022/12/09 12:01:17;;;;;;;6.07;3.00;;;;;;;;;;5105974;28;20044;-73
2022/12/09 12:04:00;;;;;;;3.88;2.42;;;;;;;;;;5106184;28;20071;-74
2022/12/09 12:06:40;;;;;;;7.88;3.25;;;;;;;;;;5106352;28;20432;-75
2022/12/09 12:09:31;;;;;;;6.82;3.25;;;;;;;;;;5106459;28;20044;-74
2022/12/09 12:12:33;;;;;;;9.50;2.60;;;;;;;;;;5106305;28;20044;-74
2022/12/09 12:15:24;;;;;;;5.82;2.17;;;;;;;;;;5106498;28;20048;-75
2022/12/09 12:17:55;;;;;;;7.53;2.25;;;;;;;;;;5105148;28;20052;-74
2022/12/09 12:20:40;;;;;;;6.30;2.25;;;;;;;;;;5105599;28;20054;-75
2022/12/09 12:23:41;;;;;;;4.97;1.58;;;;;;;;;;5106686;28;20066;-74
2022/12/09 12:26:25;;;;;;;2.60;1.50;;;;;;;;;;5105744;28;20051;-75
2022/12/09 12:28:55;;;;;;;5.78;1.90;;;;;;;;;;5109548;28;20055;-74
2022/12/09 12:32:01;;;;;;;5.25;1.77;;;;;;;;;;5109705;28;20055;-75
2022/12/09 12:34:46;;;;;;;3.78;1.95;;;;;;;;;;5107747;28;20059;-77
2022/12/09 12:37:47;;;;;;;6.05;1.80;;;;;;;;;;5109499;28;20047;-74
2022/12/09 12:40:41;;;;;;;7.30;2.55;;;;;;;;;;5108788;28;20055;-74
2022/12/09 12:46:47;;;;;;;3.72;1.95;;;;;;;;;;5109357;28;20047;-76
2022/12/09 12:49:54;;;;;;;3.20;2.00;;;;;;;;;;5109448;28;20039;-74
2022/12/09 12:52:53;;;;;;;6.43;2.10;;;;;;;;;;5109614;28;20040;-75
2022/12/09 12:55:33;;;;;;;5.50;2.40;;;;;;;;;;5109602;28;20047;-74
2022/12/09 12:58:19;;;;;;;4.25;2.22;;;;;;;;;;5109315;28;20406;-74
2022/12/09 13:01:05;;;;;;;4.45;1.98;;;;;;;;;;5108846;28;20052;-76
2022/12/09 13:03:57;;;;;;;6.22;2.55;;;;;;;;;;5109062;28;20043;-75
2022/12/09 13:06:40;;;;;;;5.88;1.88;;;;;;;;;;5109046;28;20043;-75
2022/12/09 13:09:17;;;;;;;5.82;2.25;;;;;;;;;;5108911;28;20051;-75
2022/12/09 13:12:52;;;;;;;4.50;2.65;;;;;;;;;;5108873;28;20071;-76
2022/12/09 13:15:18;;;;;;;4.38;1.85;;;;;;;;;;5108449;28;20047;-74
2022/12/09 13:17:49;;;;;;;5.07;2.60;;;;;;;;;;5109274;28;20062;-74
2022/12/09 13:20:45;;;;;;;4.32;1.98;;;;;;;;;;5108892;28;20050;-74
2022/12/09 13:23:18;;;;;;;6.00;1.70;;;;;;;;;;5105056;28;20048;-74
2022/12/09 13:26:22;;;;;;;7.80;2.10;;;;;;;;;;5108761;28;20424;-75
2022/12/09 13:29:21;;;;;;;4.90;2.63;;;;;;;;;;5107316;28;20433;-75
2022/12/09 13:32:28;;;;;;;2.95;1.50;;;;;;;;;;5109572;28;20044;-74
2022/12/09 13:35:15;;;;;;;3.08;1.85;;;;;;;;;;5108621;28;20066;-74
2022/12/09 13:37:46;;;;;;;5.15;2.28;;;;;;;;;;5107923;28;20042;-74
2022/12/09 13:40:37;;;;;;;6.00;2.03;;;;;;;;;;5107397;28;20055;-74
2022/12/09 13:43:17;;;;;;;2.78;1.42;;;;;;;;;;5108344;28;20522;-74
2022/12/09 13:45:54;;;;;;;2.85;1.65;;;;;;;;;;5107814;28;20047;-75
2022/12/09 13:48:37;;;;;;;6.53;1.75;;;;;;;;;;5107617;28;20051;-73
2022/12/09 13:51:07;;;;;;;2.40;1.90;;;;;;;;;;5108056;28;20418;-74
2022/12/09 13:53:46;;;;;;;3.47;1.58;;;;;;;;;;5108332;28;20525;-73
2022/12/09 13:56:16;;;;;;;7.25;1.88;;;;;;;;;;5107897;28;20047;-74
2022/12/09 13:58:54;;;;;;;5.20;2.03;;;;;;;;;;5107610;28;20051;-74
2022/12/09 14:01:54;;;;;;;6.18;1.88;;;;;;;;;;5108194;28;20050;-74
2022/12/09 14:04:33;;;;;;;3.95;1.80;;;;;;;;;;5108143;28;20106;-75
2022/12/09 14:07:03;;;;;;;5.22;1.75;;;;;;;;;;5106508;28;20055;-78
2022/12/09 14:09:44;;;;;;;5.05;2.30;;;;;;;;;;5107720;28;20423;-73
2022/12/09 14:12:35;;;;;;;3.55;1.88;;;;;;;;;;5107583;28;20044;-73
2022/12/09 14:15:27;;;;;;;4.47;1.70;;;;;;;;;;5107728;28;20051;-74
2022/12/09 14:18:03;;;;;;;3.97;1.58;;;;;;;;;;5107896;28;20050;-73
2022/12/09 14:20:37;;;;;;;7.88;2.60;;;;;;;;;;5106942;28;20043;-74
2022/12/09 14:23:07;;;;;;;3.75;1.90;;;;;;;;;;5107122;28;20548;-74
2022/12/09 14:25:36;;;;;;;4.10;1.90;;;;;;;;;;5107260;28;20054;-74
2022/12/09 14:28:09;;;;;;;4.65;2.00;;;;;;;;;;5107416;28;20048;-73
2022/12/09 14:30:39;;;;;;;3.83;1.83;;;;;;;;;;5105989;28;20044;-74
2022/12/09 14:33:24;;;;;;;3.47;1.55;;;;;;;;;;5107670;28;20056;-73
2022/12/09 14:36:02;;;;;;;7.35;1.90;;;;;;;;;;5107157;28;20054;-73
2022/12/09 14:38:54;;;;;;;6.03;1.73;;;;;;;;;;5107230;28;20047;-74
2022/12/09 14:42:02;;;;;;;;;;;;;;;;;;5107773;28;20053;-74
2022/12/09 14:45:04;;;;;;;6.53;2.00;;;;;;;;;;5107315;28;20027;-78
2022/12/09 14:47:41;;;;;;;6.13;2.53;;;;;;;;;;5084361;28;20059;-74
2022/12/09 14:50:20;;;;;;;8.20;1.92;;;;;;;;;;5107288;28;20056;-80
2022/12/09 14:52:53;;;;;;;7.28;2.10;;;;;;;;;;5106753;28;20051;-74
2022/12/09 14:55:25;;;;;;;5.28;2.13;;;;;;;;;;5106696;28;20043;-77
2022/12/09 14:57:59;;;;;;;2.33;1.77;;;;;;;;;;5106892;28;20391;-77
2022/12/09 15:00:42;;;;;;;5.40;1.48;;;;;;;;;;5105393;28;20043;-79
2022/12/09 15:03:22;;;;;;;2.88;1.70;;;;;;;;;;5106347;28;20074;-75
2022/12/09 15:06:17;;;;;;;4.50;2.00;;;;;;;;;;5107070;28;20410;-74
2022/12/09 15:08:49;;;;;;;3.53;1.80;;;;;;;;;;5106757;28;20533;-74
2022/12/09 15:11:32;;;;;;;5.90;1.67;;;;;;;;;;5107072;28;20510;-77
2022/12/09 15:14:26;;;;;;;8.15;1.90;;;;;;;;;;5107031;28;20043;-75
2022/12/09 15:16:58;;;;;;;6.25;1.88;;;;;;;;;;5106091;28;20052;-74
2022/12/09 15:19:33;;;;;;;7.80;1.98;;;;;;;;;;5106797;28;20056;-74
2022/12/09 15:22:28;;;;;;;6.18;1.98;;;;;;;;;;5106839;28;20047;-75
2022/12/09 15:25:01;;;;;;;4.18;1.17;;;;;;;;;;5106040;28;20047;-75
2022/12/09 15:27:31;;;;;;;5.15;1.38;;;;;;;;;;5106661;28;20047;-78
2022/12/09 15:30:20;;;;;;;5.80;1.42;;;;;;;;;;5106282;28;20097;-76
2022/12/09 15:32:50;;;;;;;5.90;1.30;;;;;;;;;;5106613;28;20383;-81
2022/12/09 15:35:23;;;;;;;3.28;1.30;;;;;;;;;;5106527;28;20521;-75
2022/12/09 15:37:57;;;;;;;3.22;1.30;;;;;;;;;;5105328;28;20048;-75
2022/12/09 15:40:31;;;;;;;1.40;1.00;;;;;;;;;;5106540;28;20051;-74
2022/12/09 15:43:09;;;;;;;4.80;1.15;;;;;;;;;;5106377;28;20517;-77